createdAt,value
2019-01-22T00:00:21.271Z,-3.30
2019-01-22T00:02:49.767Z,-3.30
2019-01-22T00:05:18.257Z,-3.30
2019-01-22T00:07:46.699Z,-3.30
2019-01-22T00:10:15.767Z,-3.40
2019-01-22T00:12:44.192Z,-3.40
2019-01-22T00:15:13.544Z,-3.40
2019-01-22T00:17:42.439Z,-3.40
2019-01-22T00:20:13.835Z,-3.40
2019-01-22T00:22:42.330Z,-3.40
2019-01-22T00:25:12.680Z,-3.40
2019-01-22T00:27:41.160Z,-3.40
2019-01-22T00:30:18.314Z,-3.40
2019-01-22T00:32:46.737Z,-3.40
2019-01-22T00:35:15.238Z,-3.40
2019-01-22T00:37:43.720Z,-3.40
2019-01-22T00:40:14.992Z,-3.40
2019-01-22T00:42:43.892Z,-3.40
2019-01-22T00:45:12.753Z,-3.30
2019-01-22T00:47:41.184Z,-3.30
2019-01-22T00:50:15.280Z,-3.30
2019-01-22T00:52:43.716Z,-3.20
2019-01-22T00:55:15.526Z,-3.20
2019-01-22T00:57:44.259Z,-3.10
2019-01-22T01:00:18.484Z,-3.10
2019-01-22T01:02:46.966Z,-3.00
2019-01-22T01:05:15.536Z,-3.00
2019-01-22T01:07:44.504Z,-2.80
2019-01-22T01:10:14.180Z,-2.80
2019-01-22T01:12:42.664Z,-2.60
2019-01-22T01:15:13.336Z,-2.50
2019-01-22T01:17:44.034Z,-2.40
2019-01-22T01:20:18.090Z,-2.30
2019-01-22T01:22:46.523Z,-2.30
2019-01-22T01:25:17.768Z,-2.30
2019-01-22T01:27:46.253Z,-2.20
2019-01-22T01:30:17.432Z,-2.20
2019-01-22T01:32:45.846Z,-2.20
2019-01-22T01:35:14.470Z,-2.20
2019-01-22T01:37:45.981Z,-2.30
2019-01-22T01:40:16.461Z,-2.30
2019-01-22T01:42:44.881Z,-2.30
2019-01-22T01:45:14.748Z,-2.30
2019-01-22T01:47:43.680Z,-2.40
2019-01-22T01:50:15.260Z,-2.50
2019-01-22T01:52:43.686Z,-2.40
2019-01-22T01:55:14.671Z,-2.40
2019-01-22T01:57:43.085Z,-2.40
2019-01-22T02:00:16.945Z,-2.30
2019-01-22T02:02:45.431Z,-2.30
2019-01-22T02:05:13.963Z,-2.30
2019-01-22T02:07:42.528Z,-2.30
2019-01-22T02:10:13.979Z,-2.30
2019-01-22T02:12:48.230Z,-2.30
2019-01-22T02:15:22.325Z,-2.20
2019-01-22T02:18:11.472Z,-2.10
2019-01-22T02:20:49.068Z,-2.00
2019-01-22T02:23:43.141Z,-1.90
2019-01-22T02:26:29.695Z,-1.80
2019-01-22T02:29:06.805Z,-1.80
2019-01-22T02:31:54.902Z,-1.70
2019-01-22T02:34:26.802Z,-1.70
2019-01-22T02:37:00.881Z,-1.60
2019-01-22T02:39:47.410Z,-1.50
2019-01-22T02:42:21.466Z,-1.40
2019-01-22T02:45:10.293Z,-1.30
2019-01-22T02:47:44.463Z,-1.30
2019-01-22T02:50:25.020Z,-1.30
2019-01-22T02:53:08.176Z,-1.20
2019-01-22T02:55:51.544Z,-1.10
2019-01-22T02:58:32.133Z,-1.00
2019-01-22T03:01:15.532Z,-1.00
2019-01-22T03:04:05.199Z,-0.90
2019-01-22T03:06:42.331Z,-0.90
2019-01-22T03:09:25.848Z,-0.80
2019-01-22T03:11:57.817Z,-0.80
2019-01-22T03:14:44.190Z,-0.90
2019-01-22T03:17:21.528Z,-0.90
2019-01-22T03:19:53.321Z,-0.90
2019-01-22T03:22:39.744Z,-0.90
2019-01-22T03:25:11.325Z,-1.00
2019-01-22T03:27:58.005Z,-1.00
2019-01-22T03:30:29.528Z,-1.10
2019-01-22T03:33:12.964Z,-1.00
2019-01-22T03:35:47.091Z,-1.00
2019-01-22T03:38:24.708Z,-1.00
2019-01-22T03:41:28.240Z,-1.00
2019-01-22T03:44:14.886Z,-1.00
2019-01-22T03:46:52.116Z,-1.00
2019-01-22T03:49:26.695Z,-1.10
2019-01-22T03:52:06.941Z,-1.00
2019-01-22T03:54:44.299Z,-1.00
2019-01-22T03:57:22.273Z,-1.00
2019-01-22T03:59:51.741Z,-1.10
2019-01-22T04:02:20.348Z,-1.10
2019-01-22T04:04:48.766Z,-1.20
2019-01-22T04:07:17.204Z,-1.20
2019-01-22T04:09:46.358Z,-1.20
2019-01-22T04:12:14.894Z,-1.20
2019-01-22T04:14:43.430Z,-1.20
2019-01-22T04:17:11.893Z,-1.30
2019-01-22T04:19:40.304Z,-1.30
2019-01-22T04:22:11.279Z,-1.40
2019-01-22T04:24:51.661Z,-1.40
2019-01-22T04:27:31.883Z,-1.40
2019-01-22T04:30:15.610Z,-1.40
2019-01-22T04:33:01.506Z,-1.30
2019-01-22T04:35:32.999Z,-1.30
2019-01-22T04:38:17.591Z,-1.40
2019-01-22T04:40:51.815Z,-1.40
2019-01-22T04:43:29.590Z,-1.40
2019-01-22T04:46:13.648Z,-1.50
2019-01-22T04:48:57.124Z,-1.50
2019-01-22T04:51:34.519Z,-1.50
2019-01-22T04:54:20.848Z,-1.60
2019-01-22T04:57:09.124Z,-1.60
2019-01-22T04:59:46.400Z,-1.50
2019-01-22T05:02:37.341Z,-1.60
2019-01-22T05:05:29.319Z,-1.60
2019-01-22T05:08:18.865Z,-1.70
2019-01-22T05:10:55.965Z,-1.70
2019-01-22T05:13:30.157Z,-1.60
2019-01-22T05:16:29.022Z,-1.60
2019-01-22T05:19:03.495Z,-1.60
2019-01-22T05:21:47.049Z,-1.60
2019-01-22T05:24:30.198Z,-1.60
2019-01-22T05:27:26.066Z,-1.70
2019-01-22T05:29:57.572Z,-1.80
2019-01-22T05:32:41.433Z,-2.00
2019-01-22T05:35:12.944Z,-1.90
2019-01-22T05:37:59.640Z,-2.00
2019-01-22T05:40:54.949Z,-1.90
2019-01-22T05:43:46.777Z,-1.90
2019-01-22T05:46:23.979Z,-1.90
2019-01-22T05:49:01.423Z,-1.90
2019-01-22T05:51:38.864Z,-2.00
2019-01-22T05:54:16.387Z,-2.00
2019-01-22T05:56:50.951Z,-2.00
2019-01-22T05:59:43.812Z,-2.10
2019-01-22T06:02:14.488Z,-2.10
2019-01-22T06:04:55.149Z,-2.30
2019-01-22T06:07:29.601Z,-2.40
2019-01-22T06:10:33.170Z,-2.50
2019-01-22T06:13:13.681Z,-2.60
2019-01-22T06:15:57.260Z,-2.70
2019-01-22T06:18:37.424Z,-2.80
2019-01-22T06:21:14.624Z,-2.90
2019-01-22T06:24:19.513Z,-3.00
2019-01-22T06:26:59.888Z,-3.00
2019-01-22T06:29:49.472Z,-3.10
2019-01-22T06:32:33.323Z,-3.10
2019-01-22T06:35:04.818Z,-3.10
2019-01-22T06:37:36.335Z,-3.20
2019-01-22T06:40:10.605Z,-3.30
2019-01-22T06:42:50.806Z,-3.30
2019-01-22T06:45:40.466Z,-3.30
2019-01-22T06:48:31.540Z,-3.30
2019-01-22T06:51:03.028Z,-3.30
2019-01-22T06:53:37.357Z,-3.40
2019-01-22T06:56:26.376Z,-3.60
2019-01-22T06:59:13.065Z,-3.60
2019-01-22T07:01:50.281Z,-3.60
2019-01-22T07:04:21.839Z,-3.60
2019-01-22T07:07:18.572Z,-3.60
2019-01-22T07:09:50.137Z,-3.60
2019-01-22T07:12:27.221Z,-3.50
2019-01-22T07:15:16.673Z,-3.50
2019-01-22T07:18:12.696Z,-3.30
2019-01-22T07:20:53.912Z,-3.00
2019-01-22T07:23:43.365Z,-2.90
2019-01-22T07:26:32.899Z,-2.70
2019-01-22T07:29:18.831Z,-2.60
2019-01-22T07:31:52.988Z,-2.60
2019-01-22T07:34:36.491Z,-2.60
2019-01-22T07:37:27.369Z,-2.40
2019-01-22T07:40:32.264Z,-2.30
2019-01-22T07:43:03.787Z,-2.10
2019-01-22T07:46:06.813Z,-2.10
2019-01-22T07:48:38.347Z,-2.10
2019-01-22T07:51:18.617Z,-2.20
2019-01-22T07:53:59.106Z,-2.20
2019-01-22T07:56:39.293Z,-2.10
2019-01-22T07:59:13.539Z,-2.00
2019-01-22T08:02:07.633Z,-1.90
2019-01-22T08:04:55.903Z,-1.90
2019-01-22T08:07:50.266Z,-1.80
2019-01-22T08:10:29.962Z,-1.70
2019-01-22T08:13:10.446Z,-1.60
2019-01-22T08:15:48.001Z,-1.60
2019-01-22T08:18:36.226Z,-1.50
2019-01-22T08:21:07.718Z,-1.30
2019-01-22T08:23:54.543Z,-1.20
2019-01-22T08:26:45.704Z,-1.10
2019-01-22T08:29:38.472Z,-1.10
2019-01-22T08:32:41.889Z,-1.10
2019-01-22T08:35:16.084Z,-1.10
2019-01-22T08:38:13.029Z,-1.10
2019-01-22T08:41:02.591Z,-1.20
2019-01-22T08:43:39.692Z,-1.10
2019-01-22T08:46:17.025Z,-1.10
2019-01-22T08:48:54.312Z,-1.10
2019-01-22T08:51:46.241Z,-1.20
2019-01-22T08:54:23.444Z,-1.10
2019-01-22T08:57:15.928Z,-0.90
2019-01-22T09:00:09.606Z,-0.80
2019-01-22T09:02:57.380Z,-0.80
2019-01-22T09:05:46.266Z,-0.80
2019-01-22T09:08:26.597Z,-0.60
2019-01-22T09:11:00.988Z,-0.40
2019-01-22T09:13:35.101Z,-0.30
2019-01-22T09:16:12.633Z,-0.10
2019-01-22T09:18:56.005Z,0.00
2019-01-22T09:21:30.425Z,0.00
2019-01-22T09:24:10.694Z,0.20
2019-01-22T09:26:53.909Z,0.20
2019-01-22T09:29:40.485Z,0.30
2019-01-22T09:32:14.937Z,0.40
2019-01-22T09:34:58.517Z,0.50
2019-01-22T09:37:30.066Z,0.50
2019-01-22T09:39:58.499Z,0.60
2019-01-22T09:42:26.932Z,0.70
2019-01-22T09:44:55.378Z,0.80
2019-01-22T09:47:23.874Z,0.80
2019-01-22T09:49:52.314Z,1.00
2019-01-22T09:52:20.721Z,1.10
2019-01-22T09:54:49.151Z,1.10
2019-01-22T09:57:17.560Z,1.10
2019-01-22T09:59:45.968Z,1.10
2019-01-22T10:02:14.397Z,1.20
2019-01-22T10:04:42.823Z,1.40
2019-01-22T10:07:11.255Z,1.50
2019-01-22T10:09:39.665Z,1.70
2019-01-22T10:12:08.160Z,1.90
2019-01-22T10:14:36.575Z,2.00
2019-01-22T10:17:05.066Z,2.20
2019-01-22T10:19:33.479Z,2.50
2019-01-22T10:22:01.947Z,2.60
2019-01-22T10:24:30.367Z,3.00
2019-01-22T10:26:58.792Z,3.30
2019-01-22T10:29:27.232Z,3.40
2019-01-22T10:31:55.649Z,3.40
2019-01-22T10:34:24.070Z,3.40
2019-01-22T10:36:52.521Z,3.40
2019-01-22T10:39:20.931Z,3.30
2019-01-22T10:41:49.374Z,3.40
2019-01-22T10:44:17.799Z,3.60
2019-01-22T10:46:46.229Z,3.30
2019-01-22T10:49:14.719Z,3.10
2019-01-22T10:51:43.161Z,3.20
2019-01-22T10:54:11.571Z,3.20
2019-01-22T10:56:40.087Z,3.00
2019-01-22T10:59:08.489Z,3.10
2019-01-22T11:01:36.912Z,3.20
2019-01-22T11:04:05.410Z,3.30
2019-01-22T11:06:33.928Z,3.30
2019-01-22T11:09:02.340Z,3.40
2019-01-22T11:11:30.780Z,3.50
2019-01-22T11:13:59.193Z,3.60
2019-01-22T11:16:27.608Z,3.80
2019-01-22T11:18:56.985Z,3.90
2019-01-22T11:21:25.410Z,3.90
2019-01-22T11:23:53.826Z,3.90
2019-01-22T11:26:22.317Z,3.90
2019-01-22T11:28:50.760Z,3.80
2019-01-22T11:31:19.179Z,3.80
2019-01-22T11:33:47.657Z,3.90
2019-01-22T11:36:16.086Z,3.80
2019-01-22T11:38:44.496Z,3.80
2019-01-22T11:41:13.007Z,3.80
2019-01-22T11:43:41.426Z,3.80
2019-01-22T11:46:09.858Z,3.80
2019-01-22T11:48:38.265Z,3.80
2019-01-22T11:51:06.695Z,3.80
2019-01-22T11:53:35.123Z,3.90
2019-01-22T11:56:03.549Z,4.00
2019-01-22T11:58:31.971Z,3.90
2019-01-22T12:01:00.778Z,4.00
2019-01-22T12:03:29.251Z,3.90
2019-01-22T12:05:57.692Z,4.20
2019-01-22T12:08:26.111Z,4.10
2019-01-22T12:10:54.529Z,4.20
2019-01-22T12:13:22.960Z,4.30
2019-01-22T12:15:51.368Z,4.50
2019-01-22T12:18:19.803Z,4.60
2019-01-22T12:20:48.208Z,4.70
2019-01-22T12:23:16.641Z,4.60
2019-01-22T12:25:45.149Z,4.20
2019-01-22T12:28:13.572Z,4.20
2019-01-22T12:30:41.979Z,4.10
2019-01-22T12:33:10.424Z,3.80
2019-01-22T12:35:38.839Z,3.80
2019-01-22T12:38:07.608Z,3.60
2019-01-22T12:40:36.031Z,3.60
2019-01-22T12:43:05.396Z,3.60
2019-01-22T12:45:36.523Z,3.50
2019-01-22T12:48:06.489Z,3.60
2019-01-22T12:50:35.081Z,3.40
2019-01-22T12:53:03.591Z,3.40
2019-01-22T12:55:31.997Z,3.40
2019-01-22T12:58:01.349Z,3.60
2019-01-22T13:00:32.300Z,3.50
2019-01-22T13:03:00.820Z,3.50
2019-01-22T13:05:47.053Z,3.50
2019-01-22T13:08:15.545Z,3.30
2019-01-22T13:10:43.956Z,3.30
2019-01-22T13:13:12.389Z,3.40
2019-01-22T13:15:40.815Z,3.40
2019-01-22T13:18:09.384Z,3.30
2019-01-22T13:20:45.587Z,3.40
2019-01-22T13:23:14.030Z,3.40
2019-01-22T13:25:42.448Z,3.30
2019-01-22T13:28:11.143Z,3.30
2019-01-22T13:30:39.552Z,3.20
2019-01-22T13:33:07.994Z,3.30
2019-01-22T13:35:36.450Z,3.30
2019-01-22T13:38:05.173Z,3.40
2019-01-22T13:40:33.581Z,3.40
2019-01-22T13:43:02.006Z,3.70
2019-01-22T13:45:35.690Z,3.70
2019-01-22T13:48:07.253Z,3.70
2019-01-22T13:50:35.678Z,3.90
2019-01-22T13:53:04.468Z,4.00
2019-01-22T13:55:38.075Z,4.10
2019-01-22T13:58:06.741Z,4.30
2019-01-22T14:00:35.689Z,4.00
2019-01-22T14:03:05.297Z,4.00
2019-01-22T14:05:33.787Z,4.10
2019-01-22T14:08:02.242Z,4.00
2019-01-22T14:10:30.644Z,3.80
2019-01-22T14:12:59.070Z,3.70
2019-01-22T14:15:35.756Z,3.70
2019-01-22T14:18:04.725Z,3.80
2019-01-22T14:20:33.200Z,3.80
2019-01-22T14:23:01.636Z,3.80
2019-01-22T14:25:30.040Z,3.80
2019-01-22T14:27:58.487Z,3.90
2019-01-22T14:30:35.649Z,3.80
2019-01-22T14:33:04.616Z,3.80
2019-01-22T14:35:33.044Z,3.80
2019-01-22T14:38:01.542Z,3.90
2019-01-22T14:40:32.308Z,3.70
2019-01-22T14:43:00.751Z,3.70
2019-01-22T14:45:29.167Z,3.60
2019-01-22T14:47:57.593Z,3.60
2019-01-22T14:50:28.449Z,3.60
2019-01-22T14:52:56.876Z,3.60
2019-01-22T14:55:25.286Z,3.50
2019-01-22T14:57:53.816Z,3.50
2019-01-22T15:00:27.180Z,3.50
2019-01-22T15:02:56.949Z,3.50
2019-01-22T15:05:27.740Z,3.20
2019-01-22T15:07:56.243Z,3.10
2019-01-22T15:10:24.725Z,3.00
2019-01-22T15:12:55.693Z,2.90
2019-01-22T15:15:24.240Z,2.90
2019-01-22T15:17:52.669Z,2.90
2019-01-22T15:20:22.935Z,2.90
2019-01-22T15:22:51.625Z,2.80
2019-01-22T15:25:20.323Z,2.80
2019-01-22T15:27:48.830Z,2.70
2019-01-22T15:30:19.805Z,2.60
2019-01-22T15:32:48.296Z,2.60
2019-01-22T15:35:16.735Z,2.60
2019-01-22T15:37:45.171Z,2.60
2019-01-22T15:40:21.895Z,2.70
2019-01-22T15:42:50.348Z,2.70
2019-01-22T15:45:18.939Z,2.60
2019-01-22T15:47:47.429Z,2.60
2019-01-22T15:50:18.487Z,2.50
2019-01-22T15:52:47.278Z,2.50
2019-01-22T15:55:18.584Z,2.40
2019-01-22T15:57:47.009Z,2.40
2019-01-22T16:00:17.930Z,2.30
2019-01-22T16:02:46.519Z,2.30
2019-01-22T16:05:15.066Z,2.20
2019-01-22T16:07:43.508Z,2.20
2019-01-22T16:10:12.971Z,2.20
2019-01-22T16:12:41.404Z,2.20
2019-01-22T16:15:12.934Z,2.10
2019-01-22T16:17:41.440Z,2.00
2019-01-22T16:20:18.564Z,2.10
2019-01-22T16:22:46.991Z,2.00
2019-01-22T16:25:15.853Z,2.00
2019-01-22T16:27:44.286Z,1.90
2019-01-22T16:30:15.402Z,1.90
2019-01-22T16:32:43.846Z,2.00
2019-01-22T16:35:14.796Z,2.00
2019-01-22T16:37:43.218Z,2.00
2019-01-22T16:40:16.040Z,2.00
2019-01-22T16:42:44.904Z,2.00
2019-01-22T16:45:19.429Z,2.00
2019-01-22T16:47:47.845Z,1.90
2019-01-22T16:50:16.430Z,1.90
2019-01-22T16:52:45.200Z,1.80
2019-01-22T16:55:16.964Z,1.80
2019-01-22T16:57:45.377Z,1.70
2019-01-22T17:00:17.110Z,1.70
2019-01-22T17:02:51.245Z,1.70
2019-01-22T17:05:20.122Z,1.70
2019-01-22T17:07:48.547Z,1.70
2019-01-22T17:10:18.925Z,1.70
2019-01-22T17:12:48.581Z,1.60
2019-01-22T17:15:17.544Z,1.60
2019-01-22T17:17:45.962Z,1.50
2019-01-22T17:20:17.507Z,1.60
2019-01-22T17:22:45.959Z,1.50
2019-01-22T17:25:14.598Z,1.60
2019-01-22T17:27:43.151Z,1.60
2019-01-22T17:30:14.823Z,1.60
2019-01-22T17:32:44.878Z,1.60
2019-01-22T17:35:13.636Z,1.60
2019-01-22T17:37:44.017Z,1.50
2019-01-22T17:40:16.385Z,1.60
2019-01-22T17:42:44.322Z,1.60
2019-01-22T17:45:12.888Z,1.50
2019-01-22T17:47:41.312Z,1.50
2019-01-22T17:50:15.193Z,1.50
2019-01-22T17:52:43.607Z,1.50
2019-01-22T17:55:12.975Z,1.40
2019-01-22T17:57:42.316Z,1.40
2019-01-22T18:00:15.497Z,1.40
2019-01-22T18:02:43.901Z,1.30
2019-01-22T18:05:14.473Z,1.30
2019-01-22T18:07:42.907Z,1.20
2019-01-22T18:10:16.323Z,1.30
2019-01-22T18:12:44.728Z,1.20
2019-01-22T18:15:14.889Z,1.20
2019-01-22T18:17:43.376Z,1.20
2019-01-22T18:20:26.656Z,1.20
2019-01-22T18:22:55.067Z,1.20
2019-01-22T18:25:23.565Z,1.20
2019-01-22T18:27:52.142Z,1.20
2019-01-22T18:30:22.819Z,1.10
2019-01-22T18:32:51.224Z,1.10
2019-01-22T18:35:28.698Z,1.10
2019-01-22T18:37:57.159Z,1.10
2019-01-22T18:40:25.640Z,1.20
2019-01-22T18:42:54.057Z,1.10
2019-01-22T18:45:22.568Z,1.20
2019-01-22T18:47:50.990Z,1.20
2019-01-22T18:50:40.305Z,1.20
2019-01-22T18:53:08.696Z,1.20
2019-01-22T18:55:37.120Z,1.30
2019-01-22T18:58:05.532Z,1.30
2019-01-22T19:00:34.054Z,1.30
2019-01-22T19:03:02.470Z,1.30
2019-01-22T19:05:30.910Z,1.30
2019-01-22T19:07:59.321Z,1.30
2019-01-22T19:10:28.732Z,1.30
2019-01-22T19:12:57.155Z,1.30
2019-01-22T19:15:25.593Z,1.30
2019-01-22T19:17:53.996Z,1.30
2019-01-22T19:20:22.420Z,1.20
2019-01-22T19:22:51.697Z,1.20
2019-01-22T19:25:26.039Z,1.20
2019-01-22T19:27:54.588Z,1.30
2019-01-22T19:30:27.696Z,1.30
2019-01-22T19:32:56.129Z,1.30
2019-01-22T19:35:24.557Z,1.30
2019-01-22T19:37:52.987Z,1.20
2019-01-22T19:40:21.588Z,1.20
2019-01-22T19:42:50.340Z,1.20
2019-01-22T19:45:21.418Z,1.20
2019-01-22T19:47:49.829Z,1.20
2019-01-22T19:50:18.337Z,1.20
2019-01-22T19:52:46.740Z,1.20
2019-01-22T19:55:15.246Z,1.20
2019-01-22T19:57:48.358Z,1.20
2019-01-22T20:00:36.504Z,1.20
2019-01-22T20:03:06.257Z,1.10
2019-01-22T20:05:35.004Z,1.00
2019-01-22T20:08:03.551Z,1.00
2019-01-22T20:10:32.006Z,1.00
2019-01-22T20:13:00.423Z,1.00
2019-01-22T20:15:28.845Z,1.10
2019-01-22T20:17:57.278Z,1.10
2019-01-22T20:20:25.699Z,1.10
2019-01-22T20:22:54.121Z,1.10
2019-01-22T20:25:22.623Z,1.00
2019-01-22T20:27:51.053Z,1.00
2019-01-22T20:30:25.168Z,1.00
2019-01-22T20:32:53.604Z,1.00
2019-01-22T20:35:22.153Z,1.10
2019-01-22T20:37:50.582Z,1.10
2019-01-22T20:40:19.033Z,1.10
2019-01-22T20:42:47.467Z,1.10
2019-01-22T20:45:18.698Z,1.10
2019-01-22T20:47:47.118Z,1.10
2019-01-22T20:50:19.411Z,1.10
2019-01-22T20:52:46.145Z,1.10
2019-01-22T20:55:17.286Z,1.10
2019-01-22T20:57:45.730Z,1.00
2019-01-22T21:00:16.481Z,1.10
2019-01-22T21:02:45.046Z,1.10
2019-01-22T21:05:22.019Z,1.10
2019-01-22T21:07:50.784Z,1.10
2019-01-22T21:10:24.320Z,1.20
2019-01-22T21:12:52.749Z,1.10
2019-01-22T21:15:21.249Z,1.20
2019-01-22T21:17:49.668Z,1.10
2019-01-22T21:20:18.735Z,1.20
2019-01-22T21:22:48.322Z,1.10
2019-01-22T21:25:21.376Z,1.10
2019-01-22T21:27:49.806Z,1.00
2019-01-22T21:30:45.353Z,1.00
2019-01-22T21:33:13.780Z,1.10
2019-01-22T21:35:42.196Z,1.10
2019-01-22T21:38:10.709Z,1.20
2019-01-22T21:40:39.120Z,1.10
2019-01-22T21:43:07.553Z,1.10
2019-01-22T21:45:35.970Z,1.10
2019-01-22T21:48:04.833Z,1.10
2019-01-22T21:50:33.248Z,1.10
2019-01-22T21:53:01.688Z,1.10
2019-01-22T21:55:30.115Z,1.20
2019-01-22T21:57:58.550Z,1.10
2019-01-22T22:00:27.736Z,1.20
2019-01-22T22:02:56.299Z,1.20
2019-01-22T22:05:30.333Z,1.20
2019-01-22T22:07:59.071Z,1.20
2019-01-22T22:10:27.546Z,1.20
2019-01-22T22:12:55.977Z,1.10
2019-01-22T22:15:26.025Z,1.20
2019-01-22T22:17:54.523Z,1.20
2019-01-22T22:20:23.801Z,1.20
2019-01-22T22:22:52.257Z,1.20
2019-01-22T22:25:23.770Z,1.10
2019-01-22T22:27:52.191Z,1.20
2019-01-22T22:30:23.421Z,1.10
2019-01-22T22:32:51.853Z,1.10
2019-01-22T22:35:20.272Z,1.20
2019-01-22T22:37:48.711Z,1.20
2019-01-22T22:40:19.267Z,1.20
2019-01-22T22:42:47.693Z,1.20
2019-01-22T22:45:21.566Z,1.20
2019-01-22T22:47:50.068Z,1.30
2019-01-22T22:50:26.563Z,1.20
2019-01-22T22:52:54.976Z,1.20
2019-01-22T22:55:23.410Z,1.30
2019-01-22T22:57:52.797Z,1.30
2019-01-22T23:00:39.782Z,1.20
2019-01-22T23:03:08.366Z,1.20
2019-01-22T23:05:37.738Z,1.10
2019-01-22T23:08:06.243Z,1.10
2019-01-22T23:10:34.786Z,1.20
2019-01-22T23:13:03.400Z,1.10
2019-01-22T23:15:32.093Z,1.10
2019-01-22T23:18:00.607Z,1.10
2019-01-22T23:20:29.012Z,1.20
2019-01-22T23:22:57.437Z,1.20
2019-01-22T23:25:25.849Z,1.10
2019-01-22T23:27:54.286Z,1.20
2019-01-22T23:30:22.783Z,1.10
2019-01-22T23:32:51.289Z,1.10
2019-01-22T23:35:20.150Z,1.10
2019-01-22T23:37:48.591Z,1.10
2019-01-22T23:40:18.039Z,1.20
2019-01-22T23:42:46.479Z,1.10
2019-01-22T23:45:15.249Z,1.20
2019-01-22T23:47:43.684Z,1.10
2019-01-22T23:50:16.250Z,1.20
2019-01-22T23:52:46.625Z,1.10
2019-01-22T23:55:15.105Z,1.10
2019-01-22T23:57:43.853Z,1.00
